createdAt,value
2023-03-07T00:02:52.180Z,99386.31
2023-03-07T00:06:07.040Z,99405.09
2023-03-07T00:09:09.721Z,99362.28
2023-03-07T00:12:12.378Z,99405.09
2023-03-07T00:15:15.022Z,99375.75
2023-03-07T00:18:17.707Z,99380.09
2023-03-07T00:21:22.147Z,99401.28
2023-03-07T00:24:24.785Z,99381.84
2023-03-07T00:27:27.426Z,99399.72
2023-03-07T00:30:30.084Z,99413.97
2023-03-07T00:33:33.812Z,99384.59
2023-03-07T00:36:36.463Z,99384.56
2023-03-07T00:39:39.027Z,99413.31
2023-03-07T00:42:41.573Z,99388.88
2023-03-07T00:45:44.136Z,99390.56
2023-03-07T00:48:47.032Z,99407.22
2023-03-07T00:51:50.326Z,99398.81
2023-03-07T00:54:53.270Z,99397.19
2023-03-07T00:57:56.031Z,99385.28
2023-03-07T01:00:59.914Z,99399.03
2023-03-07T01:04:03.621Z,99399.94
2023-03-07T01:07:06.183Z,99395.94
2023-03-07T01:10:09.594Z,99395.91
2023-03-07T01:13:12.813Z,99399.38
2023-03-07T01:16:27.561Z,99358.16
2023-03-07T01:19:30.270Z,99357.47
2023-03-07T01:22:32.953Z,99358.31
2023-03-07T01:25:43.283Z,99374.91
2023-03-07T01:28:47.463Z,99372.63
2023-03-07T01:31:50.103Z,99354.97
2023-03-07T01:34:52.997Z,99373.47
2023-03-07T01:37:55.920Z,99375.00
2023-03-07T01:40:58.571Z,99334.50
2023-03-07T01:44:05.401Z,99341.19
2023-03-07T01:47:09.266Z,99363.16
2023-03-07T01:50:20.510Z,99362.38
2023-03-07T01:53:23.215Z,99354.69
2023-03-07T01:56:26.526Z,99341.78
2023-03-07T01:59:40.389Z,99363.16
2023-03-07T02:02:45.935Z,99364.75
2023-03-07T02:05:56.827Z,99323.69
2023-03-07T02:09:00.757Z,99316.94
2023-03-07T02:12:04.259Z,99313.63
2023-03-07T02:15:10.325Z,99349.91
2023-03-07T02:18:18.173Z,99341.53
2023-03-07T02:21:50.529Z,99337.00
2023-03-07T02:25:01.849Z,99319.38
2023-03-07T02:28:09.266Z,99304.09
2023-03-07T02:31:12.081Z,99330.09
2023-03-07T02:34:30.992Z,99332.53
2023-03-07T02:37:50.928Z,99280.50
2023-03-07T02:40:55.634Z,99342.16
2023-03-07T02:43:58.386Z,99314.25
2023-03-07T02:47:01.169Z,99332.06
2023-03-07T02:50:05.250Z,99314.25
2023-03-07T02:53:08.786Z,99322.94
2023-03-07T02:56:11.792Z,99326.38
2023-03-07T02:59:14.620Z,99360.84
2023-03-07T03:02:17.511Z,99340.56
2023-03-07T03:05:20.695Z,99324.63
2023-03-07T03:08:23.333Z,99324.41
2023-03-07T03:11:26.124Z,99352.38
2023-03-07T03:14:28.971Z,99361.69
2023-03-07T03:17:31.685Z,99358.38
2023-03-07T03:20:34.298Z,99337.28
2023-03-07T03:23:37.522Z,99355.75
2023-03-07T03:26:40.598Z,99337.13
2023-03-07T03:29:44.264Z,99362.44
2023-03-07T03:32:48.299Z,99359.16
2023-03-07T03:35:53.292Z,99356.41
2023-03-07T03:38:58.175Z,99326.16
2023-03-07T03:42:02.013Z,99353.28
2023-03-07T03:45:06.313Z,99361.00
2023-03-07T03:48:09.353Z,99345.06
2023-03-07T03:51:17.067Z,99339.03
2023-03-07T03:54:20.164Z,99335.63
2023-03-07T03:57:22.742Z,99357.53
2023-03-07T04:00:25.488Z,99326.34
2023-03-07T04:03:28.187Z,99354.06
2023-03-07T04:06:34.653Z,99357.47
2023-03-07T04:09:37.524Z,99365.91
2023-03-07T04:12:41.140Z,99335.56
2023-03-07T04:15:44.113Z,99358.84
2023-03-07T04:18:46.949Z,99331.16
2023-03-07T04:21:51.786Z,99338.06
2023-03-07T04:24:54.360Z,99363.34
2023-03-07T04:27:57.410Z,99332.09
2023-03-07T04:31:00.284Z,99375.19
2023-03-07T04:34:02.870Z,99347.47
2023-03-07T04:37:05.773Z,99355.03
2023-03-07T04:40:10.009Z,99377.53
2023-03-07T04:43:12.711Z,99376.00
2023-03-07T04:46:16.782Z,99350.81
2023-03-07T04:49:19.617Z,99362.72
2023-03-07T04:52:22.590Z,99387.94
2023-03-07T04:55:25.673Z,99386.69
2023-03-07T04:58:30.058Z,99362.59
2023-03-07T05:01:32.905Z,99387.88
2023-03-07T05:04:36.441Z,99388.78
2023-03-07T05:07:39.875Z,99351.81
2023-03-07T05:10:42.716Z,99386.34
2023-03-07T05:13:46.139Z,99380.44
2023-03-07T05:16:52.203Z,99385.50
2023-03-07T05:19:54.978Z,99375.63
2023-03-07T05:22:57.979Z,99383.56
2023-03-07T05:26:00.786Z,99369.31
2023-03-07T05:29:04.232Z,99397.16
2023-03-07T05:32:07.035Z,99395.50
2023-03-07T05:35:11.999Z,99396.28
2023-03-07T05:38:15.721Z,99376.13
2023-03-07T05:41:18.390Z,99408.69
2023-03-07T05:44:21.415Z,99377.66
2023-03-07T05:47:24.239Z,99388.94
2023-03-07T05:50:27.223Z,99380.47
2023-03-07T05:53:30.192Z,99384.59
2023-03-07T05:56:33.226Z,99414.75
2023-03-07T05:59:36.402Z,99394.44
2023-03-07T06:02:39.394Z,99383.13
2023-03-07T06:05:42.347Z,99409.69
2023-03-07T06:08:44.966Z,99415.00
2023-03-07T06:11:47.996Z,99385.09
2023-03-07T06:14:50.615Z,99402.19
2023-03-07T06:17:53.875Z,99388.66
2023-03-07T06:20:58.914Z,99409.09
2023-03-07T06:24:03.877Z,99391.13
2023-03-07T06:27:07.024Z,99415.56
2023-03-07T06:30:12.460Z,99393.53
2023-03-07T06:33:16.227Z,99409.94
2023-03-07T06:36:19.858Z,99392.19
2023-03-07T06:39:29.625Z,99415.84
2023-03-07T06:42:34.330Z,99392.13
2023-03-07T06:45:37.724Z,99422.94
2023-03-07T06:48:40.741Z,99422.41
2023-03-07T06:51:48.342Z,99398.19
2023-03-07T06:54:51.724Z,99423.97
2023-03-07T06:57:54.495Z,99424.41
2023-03-07T07:00:57.219Z,99422.41
2023-03-07T07:04:00.470Z,99400.19
2023-03-07T07:07:04.092Z,99404.41
2023-03-07T07:10:07.158Z,99427.81
2023-03-07T07:13:12.606Z,99437.16
2023-03-07T07:16:16.706Z,99413.06
2023-03-07T07:19:19.652Z,99445.69
2023-03-07T07:22:23.259Z,99416.09
2023-03-07T07:25:26.026Z,99414.56
2023-03-07T07:28:29.060Z,99453.22
2023-03-07T07:31:31.806Z,99440.88
2023-03-07T07:34:34.789Z,99452.72
2023-03-07T07:37:37.705Z,99415.81
2023-03-07T07:40:40.854Z,99444.84
2023-03-07T07:43:45.190Z,99417.94
2023-03-07T07:46:55.091Z,99443.28
2023-03-07T07:49:57.763Z,99434.41
2023-03-07T07:53:00.473Z,99450.47
2023-03-07T07:56:03.274Z,99440.47
2023-03-07T07:59:06.014Z,99453.53
2023-03-07T08:02:13.878Z,99419.44
2023-03-07T08:05:20.665Z,99444.38
2023-03-07T08:08:23.480Z,99427.63
2023-03-07T08:11:26.444Z,99451.50
2023-03-07T08:14:29.286Z,99422.22
2023-03-07T08:17:31.911Z,99423.44
2023-03-07T08:20:35.670Z,99445.28
2023-03-07T08:23:38.288Z,99441.78
2023-03-07T08:26:40.871Z,99428.66
2023-03-07T08:29:43.795Z,99421.28
2023-03-07T08:32:50.184Z,99451.88
2023-03-07T08:35:52.808Z,99404.09
2023-03-07T08:38:55.385Z,99437.13
2023-03-07T08:41:58.030Z,99437.63
2023-03-07T08:45:00.754Z,99430.03
2023-03-07T08:48:03.445Z,99450.47
2023-03-07T08:51:08.921Z,99447.03
2023-03-07T08:54:11.649Z,99456.63
2023-03-07T08:57:14.264Z,99446.94
2023-03-07T09:00:17.994Z,99429.19
2023-03-07T09:03:20.730Z,99452.09
2023-03-07T09:06:23.652Z,99414.44
2023-03-07T09:09:28.872Z,99457.59
2023-03-07T09:12:33.867Z,99451.41
2023-03-07T09:15:40.180Z,99431.22
2023-03-07T09:18:42.747Z,99452.69
2023-03-07T09:21:45.508Z,99432.78
2023-03-07T09:24:48.153Z,99455.53
2023-03-07T09:27:52.879Z,99438.09
2023-03-07T09:30:55.520Z,99466.41
2023-03-07T09:33:58.119Z,99464.78
2023-03-07T09:37:00.793Z,99447.38
2023-03-07T09:40:10.149Z,99457.19
2023-03-07T09:43:20.274Z,99463.41
2023-03-07T09:47:10.583Z,99474.59
2023-03-07T09:50:39.590Z,99464.59
2023-03-07T09:53:42.123Z,99458.91
2023-03-07T09:56:47.598Z,99409.09
2023-03-07T09:59:53.971Z,99439.97
2023-03-07T10:03:05.364Z,99442.25
2023-03-07T10:06:33.583Z,99446.03
2023-03-07T10:09:36.191Z,99422.81
2023-03-07T10:13:01.856Z,99435.66
2023-03-07T10:16:36.158Z,99443.09
2023-03-07T10:19:50.210Z,99442.72
2023-03-07T10:23:29.141Z,99446.06
2023-03-07T10:26:42.039Z,99443.13
2023-03-07T10:29:53.642Z,99423.56
2023-03-07T10:33:01.131Z,99427.63
2023-03-07T10:36:10.560Z,99447.53
2023-03-07T10:39:25.401Z,99448.13
2023-03-07T10:42:33.730Z,99437.88
2023-03-07T10:45:38.025Z,99415.25
2023-03-07T10:48:45.811Z,99435.78
2023-03-07T10:52:06.832Z,99433.97
2023-03-07T10:55:37.575Z,99424.16
2023-03-07T10:58:45.621Z,99395.34
2023-03-07T11:01:56.915Z,99386.38
2023-03-07T11:04:59.947Z,99417.38
2023-03-07T11:08:22.224Z,99411.25
2023-03-07T11:11:32.632Z,99394.03
2023-03-07T11:14:54.578Z,99402.47
2023-03-07T11:17:57.917Z,99400.81
2023-03-07T11:21:00.531Z,99394.53
2023-03-07T11:24:05.012Z,99392.91
2023-03-07T11:27:21.228Z,99342.63
2023-03-07T11:30:50.821Z,99361.88
2023-03-07T11:34:06.660Z,99385.09
2023-03-07T11:37:29.748Z,99386.50
2023-03-07T11:40:43.716Z,99382.56
2023-03-07T11:44:07.783Z,99381.34
2023-03-07T11:47:33.910Z,99378.53
2023-03-07T11:50:37.390Z,99332.44
2023-03-07T11:54:06.314Z,99374.84
2023-03-07T11:57:41.031Z,99366.72
2023-03-07T12:00:58.796Z,99364.91
2023-03-07T12:04:29.011Z,99342.53
2023-03-07T12:07:49.505Z,99350.22
2023-03-07T12:11:10.327Z,99336.91
2023-03-07T12:14:23.267Z,99338.06
2023-03-07T12:17:31.245Z,99311.81
2023-03-07T12:20:58.006Z,99330.25
2023-03-07T12:24:06.681Z,99324.31
2023-03-07T12:27:38.363Z,99308.66
2023-03-07T12:30:53.007Z,99326.81
2023-03-07T12:34:10.527Z,99323.81
2023-03-07T12:37:23.267Z,99323.16
2023-03-07T12:40:51.621Z,99318.28
2023-03-07T12:44:00.293Z,99318.13
2023-03-07T12:47:30.802Z,99298.53
2023-03-07T12:50:45.973Z,99302.88
2023-03-07T12:53:55.755Z,99302.75
2023-03-07T12:57:27.052Z,99287.19
2023-03-07T13:00:32.128Z,99305.41
2023-03-07T13:03:44.457Z,99305.81
2023-03-07T13:06:48.130Z,99275.22
2023-03-07T13:09:55.460Z,99312.06
2023-03-07T13:12:58.082Z,99294.66
2023-03-07T13:16:05.580Z,99301.47
2023-03-07T13:19:36.449Z,99303.91
2023-03-07T13:22:39.170Z,99305.16
2023-03-07T13:25:44.274Z,99280.50
2023-03-07T13:28:51.028Z,99279.09
2023-03-07T13:31:54.521Z,99282.84
2023-03-07T13:34:57.422Z,99251.84
2023-03-07T13:38:24.708Z,99286.03
2023-03-07T13:41:47.579Z,99294.22
2023-03-07T13:44:50.221Z,99278.97
2023-03-07T13:47:52.868Z,99260.66
2023-03-07T13:50:55.367Z,99275.16
2023-03-07T13:59:12.684Z,99272.78
2023-03-07T14:03:30.299Z,99275.56
2023-03-07T14:06:48.750Z,99245.31
2023-03-07T14:09:57.257Z,99276.09
2023-03-07T14:13:24.801Z,99272.78
2023-03-07T14:16:36.099Z,99243.84
2023-03-07T14:19:47.355Z,99274.16
2023-03-07T14:23:12.160Z,99270.88
2023-03-07T14:26:17.911Z,99281.03
2023-03-07T14:29:23.352Z,99279.53
2023-03-07T14:32:32.357Z,99271.94
2023-03-07T14:35:41.813Z,99214.78
2023-03-07T14:38:46.348Z,99270.03
2023-03-07T14:42:01.138Z,99267.91
2023-03-07T14:45:21.719Z,99265.81
2023-03-07T14:48:42.454Z,99264.28
2023-03-07T14:51:45.399Z,99261.63
2023-03-07T14:54:52.364Z,99240.63
2023-03-07T14:57:55.667Z,99275.41
2023-03-07T15:01:01.050Z,99246.50
2023-03-07T15:04:28.830Z,99259.72
2023-03-07T15:07:35.709Z,99259.72
2023-03-07T15:10:41.797Z,99229.53
2023-03-07T15:13:51.952Z,99246.06
2023-03-07T15:17:01.607Z,99241.84
2023-03-07T15:20:14.720Z,99269.31
2023-03-07T15:23:24.144Z,99221.91
2023-03-07T15:26:28.372Z,99254.88
2023-03-07T15:29:33.076Z,99252.66
2023-03-07T15:32:41.660Z,99256.63
2023-03-07T15:35:46.073Z,99238.44
2023-03-07T15:38:51.124Z,99235.25
2023-03-07T15:42:05.995Z,99269.06
2023-03-07T15:45:31.141Z,99250.13
2023-03-07T15:48:38.713Z,99262.97
2023-03-07T15:51:41.353Z,99238.19
2023-03-07T15:54:44.087Z,99258.47
2023-03-07T15:57:52.540Z,99261.25
2023-03-07T16:01:18.616Z,99252.91
2023-03-07T16:04:34.575Z,99234.72
2023-03-07T16:07:37.325Z,99257.00
2023-03-07T16:10:47.200Z,99254.50
2023-03-07T16:13:49.931Z,99217.47
2023-03-07T16:16:59.575Z,99251.94
2023-03-07T16:20:04.445Z,99247.25
2023-03-07T16:23:12.994Z,99248.47
2023-03-07T16:26:21.798Z,99221.53
2023-03-07T16:29:24.506Z,99256.47
2023-03-07T16:32:27.269Z,99246.94
2023-03-07T16:35:30.346Z,99233.16
2023-03-07T16:38:33.510Z,99249.84
2023-03-07T16:41:43.178Z,99251.34
2023-03-07T16:44:46.050Z,99248.69
2023-03-07T16:47:51.383Z,99244.06
2023-03-07T16:50:54.163Z,99229.69
2023-03-07T16:53:59.769Z,99256.66
2023-03-07T16:57:02.878Z,99242.63
2023-03-07T17:00:06.670Z,99260.25
2023-03-07T17:03:10.028Z,99206.94
2023-03-07T17:06:16.486Z,99253.53
2023-03-07T17:09:19.208Z,99252.72
2023-03-07T17:12:23.511Z,99232.69
2023-03-07T17:15:30.833Z,99236.25
2023-03-07T17:18:34.107Z,99256.69
2023-03-07T17:21:36.899Z,99231.47
2023-03-07T17:24:39.765Z,99257.88
2023-03-07T17:27:48.431Z,99253.13
2023-03-07T17:30:51.083Z,99237.69
2023-03-07T17:33:54.030Z,99232.91
2023-03-07T17:36:57.677Z,99221.69
2023-03-07T17:40:00.673Z,99209.09
2023-03-07T17:43:04.398Z,99210.59
2023-03-07T17:46:11.402Z,99243.91
2023-03-07T17:49:14.219Z,99237.75
2023-03-07T17:52:16.980Z,99199.47
2023-03-07T17:55:21.221Z,99169.75
2023-03-07T17:58:24.013Z,99220.22
2023-03-07T18:01:31.285Z,99213.03
2023-03-07T18:04:34.154Z,99227.75
2023-03-07T18:07:36.986Z,99206.56
2023-03-07T18:10:39.948Z,99230.03
2023-03-07T18:13:42.998Z,99207.41
2023-03-07T18:16:45.884Z,99225.13
2023-03-07T18:19:48.696Z,99235.34
2023-03-07T18:22:51.472Z,99221.94
2023-03-07T18:26:03.190Z,99222.97
2023-03-07T18:29:06.071Z,99217.84
2023-03-07T18:32:08.899Z,99228.56
2023-03-07T18:35:15.519Z,99221.22
2023-03-07T18:38:18.498Z,99226.25
2023-03-07T18:41:23.967Z,99214.47
2023-03-07T18:44:26.743Z,99210.91
2023-03-07T18:47:29.417Z,99224.97
2023-03-07T18:50:32.201Z,99229.31
2023-03-07T18:53:35.535Z,99207.00
2023-03-07T18:56:38.549Z,99198.88
2023-03-07T18:59:41.591Z,99223.38
2023-03-07T19:02:44.400Z,99224.00
2023-03-07T19:05:49.478Z,99200.72
2023-03-07T19:08:52.745Z,99215.44
2023-03-07T19:11:55.591Z,99199.25
2023-03-07T19:14:59.003Z,99217.88
2023-03-07T19:18:03.135Z,99202.44
2023-03-07T19:21:07.605Z,99202.56
2023-03-07T19:24:11.847Z,99180.16
2023-03-07T19:27:14.719Z,99204.00
2023-03-07T19:30:19.166Z,99177.94
2023-03-07T19:33:22.236Z,99180.16
2023-03-07T19:36:27.593Z,99210.16
2023-03-07T19:39:30.474Z,99202.56
2023-03-07T19:42:33.242Z,99211.81
2023-03-07T19:45:40.238Z,99186.03
2023-03-07T19:48:46.286Z,99172.97
2023-03-07T19:51:49.357Z,99203.47
2023-03-07T19:54:53.466Z,99205.22
2023-03-07T19:57:56.349Z,99199.94
2023-03-07T20:00:59.486Z,99202.31
2023-03-07T20:04:04.892Z,99187.56
2023-03-07T20:07:07.871Z,99187.00
2023-03-07T20:10:11.368Z,99203.88
2023-03-07T20:13:14.860Z,99197.56
2023-03-07T20:16:20.417Z,99185.00
2023-03-07T20:19:23.372Z,99201.69
2023-03-07T20:22:28.441Z,99211.06
2023-03-07T20:25:31.314Z,99208.25
2023-03-07T20:28:34.965Z,99205.44
2023-03-07T20:31:39.491Z,99170.59
2023-03-07T20:34:42.638Z,99187.28
2023-03-07T20:37:45.494Z,99161.41
2023-03-07T20:40:48.279Z,99183.78
2023-03-07T20:43:52.106Z,99174.84
2023-03-07T20:46:55.785Z,99176.91
2023-03-07T20:49:58.898Z,99167.56
2023-03-07T20:53:01.729Z,99173.25
2023-03-07T20:56:06.014Z,99172.03
2023-03-07T20:59:12.571Z,99171.88
2023-03-07T21:02:15.630Z,99160.94
2023-03-07T21:05:18.246Z,99165.91
2023-03-07T21:08:21.412Z,99169.38
2023-03-07T21:11:24.364Z,99155.84
2023-03-07T21:14:27.502Z,99164.88
2023-03-07T21:17:30.239Z,99144.41
2023-03-07T21:20:34.242Z,99179.16
2023-03-07T21:23:37.324Z,99144.22
2023-03-07T21:26:40.448Z,99171.50
2023-03-07T21:29:43.725Z,99172.47
2023-03-07T21:32:46.745Z,99180.13
2023-03-07T21:35:49.429Z,99167.31
2023-03-07T21:38:52.125Z,99171.88
2023-03-07T21:41:55.192Z,99152.66
2023-03-07T21:44:57.930Z,99168.94
2023-03-07T21:48:00.543Z,99139.56
2023-03-07T21:51:04.380Z,99136.81
2023-03-07T21:54:07.103Z,99121.06
2023-03-07T21:57:09.755Z,99125.81
2023-03-07T22:00:16.360Z,99120.69
2023-03-07T22:03:19.436Z,99153.91
2023-03-07T22:06:22.904Z,99120.44
2023-03-07T22:09:27.419Z,99121.97
2023-03-07T22:12:30.446Z,99140.16
2023-03-07T22:15:33.255Z,99121.38
2023-03-07T22:18:36.738Z,99119.47
2023-03-07T22:21:39.851Z,99126.97
2023-03-07T22:24:42.518Z,99139.78
2023-03-07T22:27:45.419Z,99142.69
2023-03-07T22:30:49.496Z,99130.63
2023-03-07T22:33:52.171Z,99126.78
2023-03-07T22:36:56.371Z,99104.63
2023-03-07T22:40:00.257Z,99104.31
2023-03-07T22:43:02.845Z,99116.81
2023-03-07T22:46:06.237Z,99060.69
2023-03-07T22:49:10.243Z,99098.59
2023-03-07T22:52:12.830Z,99107.84
2023-03-07T22:55:15.780Z,99120.69
2023-03-07T22:58:18.340Z,99114.66
2023-03-07T23:01:24.003Z,99076.50
2023-03-07T23:04:29.073Z,99106.06
2023-03-07T23:07:31.648Z,99113.13
2023-03-07T23:10:34.329Z,99064.22
2023-03-07T23:13:36.942Z,99058.13
2023-03-07T23:16:39.533Z,99050.59
2023-03-07T23:19:42.060Z,99088.22
2023-03-07T23:22:45.897Z,99064.31
2023-03-07T23:25:48.479Z,99088.09
2023-03-07T23:28:52.206Z,99093.16
2023-03-07T23:31:54.968Z,99067.47
2023-03-07T23:34:57.506Z,99063.16
2023-03-07T23:38:00.357Z,99049.81
2023-03-07T23:41:03.063Z,99063.06
2023-03-07T23:44:05.691Z,99049.25
2023-03-07T23:47:08.298Z,99067.09
2023-03-07T23:50:11.423Z,99061.03
2023-03-07T23:53:14.320Z,99058.03
2023-03-07T23:56:17.166Z,99062.03
2023-03-07T23:59:19.787Z,99038.81
